| time (UTC) | temp F | wind direction | speed MPH | gust MPH | rain 1hr in | rain 24hr in | rain mn in | humidity % | barometer mb |
| 20260507001026 | 46 | 338 | 5.0 | 8.0 | 0.00 | 0.00 | 0.00 | 1 | 1012.8 |
| 20260507000036 | 46 | 0 | 5.0 | 8.0 | 0.00 | 0.00 | 0.00 | 1 | 1012.9 |
| 20260506235016 | 46 | 338 | 6.0 | 9.0 | 0.00 | 0.00 | 0.00 | 1 | 1012.9 |
| 20260506234016 | 46 | 0 | 5.0 | 8.0 | 0.00 | 0.00 | 0.00 | 1 | 1012.8 |
| 20260506233017 | 46 | 0 | 6.0 | 8.0 | 0.00 | 0.00 | 0.00 | 1 | 1012.8 |
| 20260506232017 | 46 | 0 | 5.0 | 7.0 | 0.00 | 0.00 | 0.00 | 1 | 1012.9 |
| 20260506231016 | 46 | 0 | 5.0 | 8.0 | 0.00 | 0.00 | 0.00 | 1 | 1012.9 |
| 20260506230016 | 46 | 0 | 5.0 | 6.0 | 0.00 | 0.00 | 0.00 | 1 | 1012.9 |
| 20260506225016 | 46 | 0 | 5.0 | 7.0 | 0.00 | 0.00 | 0.00 | 1 | 1012.7 |
| 20260506224017 | 46 | 0 | 6.0 | 8.0 | 0.00 | 0.00 | 0.00 | 1 | 1012.6 |
| 20260506223018 | 46 | 0 | 6.0 | 10.0 | 0.00 | 0.00 | 0.00 | 1 | 1012.6 |
| 20260506222016 | 46 | 0 | 6.0 | 8.0 | 0.00 | 0.00 | 0.00 | 1 | 1012.6 |
| 20260506221016 | 46 | 0 | 5.0 | 7.0 | 0.00 | 0.00 | 0.00 | 1 | 1012.6 |
| 20260506220016 | 46 | 23 | 5.0 | 8.0 | 0.00 | 0.00 | 0.00 | 1 | 1012.5 |
| 20260506215015 | 47 | 0 | 6.0 | 9.0 | 0.00 | 0.00 | 0.00 | 1 | 1012.5 |
| 20260506214039 | 47 | 0 | 6.0 | 8.0 | 0.00 | 0.00 | 0.00 | 1 | 1012.5 |
| 20260506213017 | 47 | 0 | 6.0 | 9.0 | 0.00 | 0.00 | 0.00 | 1 | 1012.5 |
| 20260506212017 | 47 | 23 | 6.0 | 10.0 | 0.00 | 0.00 | 0.00 | 1 | 1012.4 |
| 20260506211017 | 47 | 23 | 7.0 | 10.0 | 0.00 | 0.00 | 0.00 | 1 | 1012.3 |
| 20260506210038 | 47 | 23 | 8.0 | 11.0 | 0.00 | 0.00 | 0.00 | 1 | 1012.3 |
| 20260506205027 | 47 | 23 | 9.0 | 11.0 | 0.00 | 0.00 | 0.00 | 1 | 1012.2 |
| 20260506204019 | 47 | 23 | 8.0 | 11.0 | 0.00 | 0.00 | 0.00 | 1 | 1012.3 |
| 20260506203017 | 48 | 23 | 8.0 | 10.0 | 0.00 | 0.00 | 0.00 | 1 | 1012.2 |
| 20260506202019 | 48 | 23 | 7.0 | 9.0 | 0.00 | 0.00 | 0.00 | 1 | 1012.2 |
| 20260506201017 | 48 | 23 | 7.0 | 10.0 | 0.00 | 0.00 | 0.00 | 1 | 1012.1 |
| 20260506200017 | 49 | 23 | 8.0 | 10.0 | 0.00 | 0.00 | 0.00 | 2 | 1012.1 |
| 20260506195018 | 49 | 45 | 8.0 | 11.0 | 0.00 | 0.00 | 0.00 | 6 | 1012.0 |
| 20260506194017 | 49 | 45 | 8.0 | 11.0 | 0.00 | 0.00 | 0.00 | 11 | 1011.8 |
| 20260506193017 | 50 | 23 | 9.0 | 12.0 | 0.00 | 0.00 | 0.00 | 17 | 1011.7 |
| 20260506192017 | 50 | 23 | 10.0 | 13.0 | 0.00 | 0.00 | 0.00 | 18 | 1011.6 |
| 20260506191017 | 50 | 23 | 11.0 | 13.0 | 0.00 | 0.00 | 0.00 | 26 | 1011.4 |
| 20260506190039 | 51 | 23 | 11.0 | 16.0 | 0.00 | 0.00 | 0.00 | 29 | 1011.4 |
| 20260506185022 | 52 | 23 | 12.0 | 15.0 | 0.00 | 0.00 | 0.00 | 36 | 1011.3 |
| 20260506184017 | 52 | 23 | 12.0 | 16.0 | 0.00 | 0.00 | 0.00 | 43 | 1011.2 |
| 20260506183059 | 53 | 23 | 13.0 | 17.0 | 0.00 | 0.00 | 0.00 | 52 | 1011.1 |
| 20260506182017 | 53 | 23 | 13.0 | 16.0 | 0.00 | 0.00 | 0.00 | 57 | 1011.0 |
| 20260506181037 | 54 | 23 | 14.0 | 19.0 | 0.00 | 0.00 | 0.00 | 61 | 1010.8 |
| 20260506180017 | 54 | 23 | 14.0 | 19.0 | 0.00 | 0.00 | 0.00 | 63 | 1010.7 |
| 20260506175017 | 54 | 45 | 16.0 | 21.0 | 0.00 | 0.00 | 0.00 | 63 | 1010.6 |
| 20260506174039 | 54 | 23 | 16.0 | 20.0 | 0.00 | 0.00 | 0.00 | 63 | 1010.5 |
| 20260506173037 | 54 | 23 | 15.0 | 19.0 | 0.00 | 0.00 | 0.00 | 63 | 1010.4 |
| 20260506172018 | 54 | 45 | 16.0 | 21.0 | 0.00 | 0.00 | 0.00 | 63 | 1010.7 |
| 20260506171017 | 55 | 23 | 15.0 | 21.0 | 0.00 | 0.00 | 0.00 | 62 | 1010.2 |
| 20260506170017 | 55 | 45 | 16.0 | 22.0 | 0.00 | 0.00 | 0.00 | 61 | 1010.2 |
| 20260506165037 | 55 | 45 | 16.0 | 22.0 | 0.00 | 0.00 | 0.00 | 62 | 1010.1 |
| 20260506164017 | 55 | 45 | 17.0 | 23.0 | 0.00 | 0.00 | 0.00 | 62 | 1010.1 |
| 20260506163017 | 55 | 45 | 15.0 | 19.0 | 0.00 | 0.00 | 0.00 | 61 | 1010.2 |
| 20260506162038 | 54 | 45 | 17.0 | 24.0 | 0.00 | 0.00 | 0.00 | 61 | 1010.1 |
| 20260506161017 | 54 | 45 | 16.0 | 23.0 | 0.00 | 0.00 | 0.00 | 61 | 1010.2 |
| 20260506160017 | 54 | 45 | 18.0 | 24.0 | 0.00 | 0.00 | 0.00 | 62 | 1010.1 |
| 20260506155017 | 54 | 45 | 19.0 | 25.0 | 0.00 | 0.00 | 0.00 | 63 | 1010.1 |
| 20260506154017 | 55 | 23 | 19.0 | 23.0 | 0.00 | 0.00 | 0.00 | 63 | 1010.1 |
| 20260506153018 | 55 | 45 | 19.0 | 26.0 | 0.00 | 0.00 | 0.00 | 63 | 1010.0 |
| 20260506152017 | 55 | 45 | 16.0 | 20.0 | 0.00 | 0.00 | 0.00 | 63 | 1010.0 |
| 20260506151017 | 55 | 45 | 16.0 | 21.0 | 0.00 | 0.00 | 0.00 | 62 | 1010.0 |
| 20260506150017 | 56 | 45 | 16.0 | 21.0 | 0.00 | 0.00 | 0.00 | 62 | 1010.0 |
| 20260506145038 | 56 | 45 | 14.0 | 23.0 | 0.00 | 0.00 | 0.00 | 62 | 1009.9 |
| 20260506144017 | 56 | 45 | 18.0 | 24.0 | 0.00 | 0.00 | 0.00 | 62 | 1009.8 |
| 20260506143018 | 56 | 45 | 18.0 | 22.0 | 0.00 | 0.00 | 0.00 | 62 | 1009.7 |
| 20260506142017 | 56 | 45 | 17.0 | 24.0 | 0.00 | 0.00 | 0.00 | 62 | 1009.7 |
| 20260506141017 | 56 | 45 | 16.0 | 22.0 | 0.00 | 0.00 | 0.00 | 62 | 1009.8 |
| 20260506140017 | 56 | 45 | 18.0 | 23.0 | 0.00 | 0.00 | 0.00 | 61 | 1009.9 |
| 20260506134040 | 56 | 45 | 17.0 | 23.0 | 0.00 | 0.00 | 0.00 | 63 | 1009.7 |
| 20260506133017 | 56 | 45 | 18.0 | 23.0 | 0.00 | 0.00 | 0.00 | 63 | 1009.7 |
| 20260506132037 | 56 | 45 | 18.0 | 24.0 | 0.00 | 0.00 | 0.00 | 63 | 1009.6 |
| 20260506131017 | 56 | 45 | 18.0 | 23.0 | 0.00 | 0.00 | 0.00 | 63 | 1009.6 |
| 20260506130017 | 56 | 45 | 17.0 | 21.0 | 0.00 | 0.00 | 0.00 | 62 | 1009.6 |
| 20260506125017 | 57 | 45 | 16.0 | 23.0 | 0.00 | 0.00 | 0.00 | 62 | 1009.5 |
| 20260506124018 | 57 | 45 | 19.0 | 25.0 | 0.00 | 0.00 | 0.00 | 60 | 1009.5 |
| 20260506123017 | 57 | 45 | 17.0 | 22.0 | 0.00 | 0.00 | 0.00 | 62 | 1009.5 |
| 20260506122017 | 56 | 45 | 18.0 | 23.0 | 0.00 | 0.00 | 0.00 | 62 | 1009.5 |
| 20260506121018 | 57 | 45 | 19.0 | 27.0 | 0.00 | 0.00 | 0.00 | 63 | 1009.4 |
| 20260506120037 | 56 | 45 | 18.0 | 24.0 | 0.00 | 0.00 | 0.00 | 62 | 1009.3 |
| 20260506115037 | 56 | 45 | 17.0 | 23.0 | 0.00 | 0.00 | 0.00 | 63 | 1009.3 |
| 20260506114038 | 57 | 68 | 18.0 | 24.0 | 0.00 | 0.00 | 0.00 | 61 | 1009.3 |
| 20260506113037 | 56 | 45 | 16.0 | 21.0 | 0.00 | 0.00 | 0.00 | 62 | 1009.3 |
| 20260506112016 | 56 | 68 | 18.0 | 24.0 | 0.00 | 0.00 | 0.00 | 62 | 1009.2 |
| 20260506111017 | 56 | 68 | 19.0 | 24.0 | 0.00 | 0.00 | 0.00 | 62 | 1009.2 |
| 20260506110022 | 57 | 45 | 16.0 | 22.0 | 0.00 | 0.00 | 0.00 | 62 | 1009.2 |
| 20260506105017 | 57 | 45 | 18.0 | 27.0 | 0.00 | 0.00 | 0.00 | 63 | 1009.3 |
| 20260506104017 | 57 | 45 | 15.0 | 21.0 | 0.00 | 0.00 | 0.00 | 62 | 1009.2 |
| 20260506103036 | 56 | 68 | 20.0 | 28.0 | 0.00 | 0.00 | 0.00 | 60 | 1009.2 |
| 20260506102039 | 57 | 45 | 18.0 | 24.0 | 0.00 | 0.00 | 0.00 | 62 | 1009.1 |
| 20260506101037 | 57 | 68 | 16.0 | 21.0 | 0.00 | 0.00 | 0.00 | 61 | 1009.1 |
| 20260506100037 | 56 | 45 | 17.0 | 21.0 | 0.00 | 0.00 | 0.00 | 62 | 1009.1 |
| 20260506095016 | 56 | 45 | 16.0 | 23.0 | 0.00 | 0.00 | 0.00 | 61 | 1009.0 |
| 20260506094018 | 56 | 68 | 17.0 | 24.0 | 0.00 | 0.00 | 0.00 | 62 | 1009.0 |
| 20260506093017 | 56 | 68 | 18.0 | 25.0 | 0.00 | 0.00 | 0.00 | 60 | 1009.0 |
| 20260506092017 | 56 | 68 | 18.0 | 22.0 | 0.00 | 0.00 | 0.00 | 61 | 1009.0 |
| 20260506091058 | 56 | 68 | 16.0 | 21.0 | 0.00 | 0.00 | 0.00 | 61 | 1008.9 |
| 20260506090016 | 55 | 45 | 17.0 | 22.0 | 0.00 | 0.00 | 0.00 | 60 | 1008.9 |
| 20260506085016 | 55 | 45 | 19.0 | 24.0 | 0.00 | 0.00 | 0.00 | 62 | 1008.9 |
| 20260506084016 | 55 | 68 | 18.0 | 23.0 | 0.00 | 0.00 | 0.00 | 63 | 1008.9 |
| 20260506083017 | 55 | 45 | 16.0 | 23.0 | 0.00 | 0.00 | 0.00 | 63 | 1008.8 |
| 20260506082016 | 55 | 45 | 15.0 | 20.0 | 0.00 | 0.00 | 0.00 | 60 | 1008.8 |
| 20260506081018 | 55 | 45 | 15.0 | 23.0 | 0.00 | 0.00 | 0.00 | 59 | 1008.7 |
| 20260506073016 | 54 | 45 | 13.0 | 19.0 | 0.00 | 0.00 | 0.00 | 32 | 1008.6 |
| 20260506072016 | 53 | 45 | 14.0 | 19.0 | 0.00 | 0.00 | 0.00 | 26 | 1008.6 |
| 20260506071038 | 53 | 45 | 15.0 | 18.0 | 0.00 | 0.00 | 0.00 | 23 | 1008.6 |
| 20260506062018 | 51 | 45 | 12.0 | 17.0 | 0.00 | 0.00 | 0.00 | 1 | 1008.4 |
| 20260506061026 | 51 | 45 | 10.0 | 14.0 | 0.00 | 0.00 | 0.00 | 1 | 1008.4 |
| 20260506051016 | 49 | 23 | 8.0 | 11.0 | 0.00 | 0.00 | 0.00 | 1 | 1008.5 |
| 20260506045016 | 49 | 23 | 8.0 | 11.0 | 0.00 | 0.00 | 0.00 | 1 | 1008.4 |
| 20260506044018 | 49 | 23 | 8.0 | 11.0 | 0.00 | 0.00 | 0.00 | 1 | 1008.4 |
| 20260506043016 | 49 | 23 | 9.0 | 12.0 | 0.00 | 0.00 | 0.00 | 1 | 1008.4 |
| 20260506042016 | 48 | 23 | 10.0 | 13.0 | 0.00 | 0.00 | 0.00 | 1 | 1008.4 |
| 20260506041036 | 49 | 23 | 11.0 | 13.0 | 0.00 | 0.00 | 0.00 | 1 | 1008.4 |
| 20260506040016 | 49 | 23 | 10.0 | 15.0 | 0.00 | 0.00 | 0.00 | 1 | 1008.4 |
| 20260506035017 | 49 | 23 | 11.0 | 13.0 | 0.00 | 0.00 | 0.00 | 1 | 1008.4 |
| 20260506034018 | 49 | 23 | 11.0 | 14.0 | 0.00 | 0.00 | 0.00 | 1 | 1008.5 |
| 20260506033016 | 50 | 23 | 11.0 | 15.0 | 0.00 | 0.00 | 0.00 | 1 | 1008.4 |
| 20260506032016 | 50 | 23 | 13.0 | 16.0 | 0.00 | 0.00 | 0.00 | 1 | 1008.5 |
| 20260506031016 | 50 | 45 | 12.0 | 15.0 | 0.00 | 0.00 | 0.00 | 1 | 1008.6 |
| 20260506030019 | 50 | 23 | 9.0 | 13.0 | 0.00 | 0.00 | 0.00 | 1 | 1008.7 |
| 20260506025016 | 50 | 45 | 11.0 | 15.0 | 0.00 | 0.00 | 0.00 | 1 | 1008.8 |
| 20260506024017 | 50 | 23 | 10.0 | 14.0 | 0.00 | 0.00 | 0.00 | 1 | 1008.9 |
| 20260506023036 | 50 | 23 | 11.0 | 15.0 | 0.00 | 0.00 | 0.00 | 1 | 1008.9 |
| 20260506022026 | 50 | 23 | 11.0 | 14.0 | 0.00 | 0.00 | 0.00 | 1 | 1009.0 |
| 20260506021026 | 50 | 23 | 10.0 | 14.0 | 0.00 | 0.00 | 0.00 | 1 | 1008.9 |
| 20260506020026 | 50 | 23 | 9.0 | 12.0 | 0.00 | 0.00 | 0.00 | 1 | 1009.1 |
| 20260506015036 | 50 | 23 | 10.0 | 14.0 | 0.00 | 0.00 | 0.00 | 1 | 1009.1 |
| 20260506014037 | 50 | 23 | 11.0 | 13.0 | 0.00 | 0.00 | 0.00 | 1 | 1009.0 |
| 20260506013017 | 50 | 23 | 10.0 | 13.0 | 0.00 | 0.00 | 0.00 | 1 | 1009.1 |
| 20260506012016 | 50 | 23 | 10.0 | 13.0 | 0.00 | 0.00 | 0.00 | 1 | 1009.1 |
| 20260506011016 | 50 | 23 | 10.0 | 12.0 | 0.00 | 0.00 | 0.00 | 1 | 1009.2 |
| 20260506010016 | 50 | 23 | 8.0 | 12.0 | 0.00 | 0.00 | 0.00 | 1 | 1009.4 |
| 20260506005058 | 50 | 23 | 9.0 | 12.0 | 0.00 | 0.00 | 0.00 | 1 | 1009.4 |
| 20260506004016 | 50 | 23 | 9.0 | 12.0 | 0.00 | 0.00 | 0.00 | 1 | 1009.5 |
| 20260506003016 | 50 | 23 | 10.0 | 14.0 | 0.00 | 0.00 | 0.00 | 1 | 1009.5 |
| 20260506002016 | 50 | 23 | 10.0 | 13.0 | 0.00 | 0.00 | 0.00 | 1 | 1009.5 |